createdAt,value
2022-11-05T00:02:07.145Z,94863.94
2022-11-05T00:04:28.183Z,94858.97
2022-11-05T00:06:46.372Z,94854.25
2022-11-05T00:09:01.887Z,94856.34
2022-11-05T00:11:00.067Z,94863.25
2022-11-05T00:13:18.074Z,94865.47
2022-11-05T00:15:34.020Z,94854.94
2022-11-05T00:17:33.578Z,94856.75
2022-11-05T00:19:31.841Z,94858.13
2022-11-05T00:21:47.268Z,94848.88
2022-11-05T00:24:03.053Z,94850.91
2022-11-05T00:26:03.421Z,94850.78
2022-11-05T00:28:03.294Z,94848.03
2022-11-05T00:30:01.587Z,94852.47
2022-11-05T00:31:59.839Z,94846.34
2022-11-05T00:33:59.480Z,94848.16
2022-11-05T00:35:57.728Z,94839.44
2022-11-05T00:37:55.837Z,94846.78
2022-11-05T00:39:54.019Z,94843.31
2022-11-05T00:42:12.356Z,94841.94
2022-11-05T00:44:27.869Z,94834.47
2022-11-05T00:46:26.135Z,94835.03
2022-11-05T00:48:41.628Z,94841.53
2022-11-05T00:50:41.476Z,94826.44
2022-11-05T00:52:59.711Z,94825.88
2022-11-05T00:54:58.113Z,94837.50
2022-11-05T00:56:59.408Z,94826.97
2022-11-05T00:59:01.669Z,94817.28
2022-11-05T01:01:01.714Z,94831.28
2022-11-05T01:03:01.938Z,94836.41
2022-11-05T01:05:00.042Z,94826.59
2022-11-05T01:06:59.647Z,94833.78
2022-11-05T01:08:57.816Z,94812.63
2022-11-05T01:10:57.599Z,94823.00
2022-11-05T01:12:55.898Z,94818.03
2022-11-05T01:14:54.044Z,94814.03
2022-11-05T01:16:52.262Z,94814.97
2022-11-05T01:18:50.622Z,94809.59
2022-11-05T01:20:49.218Z,94801.81
2022-11-05T01:22:48.896Z,94797.00
2022-11-05T01:24:47.022Z,94801.44
2022-11-05T01:26:45.337Z,94796.03
2022-11-05T01:28:43.810Z,94798.50
2022-11-05T01:30:42.044Z,94800.16
2022-11-05T01:32:40.500Z,94790.47
2022-11-05T01:34:38.647Z,94796.84
2022-11-05T01:36:36.891Z,94792.69
2022-11-05T01:38:36.429Z,94793.00
2022-11-05T01:40:34.600Z,94784.84
2022-11-05T01:42:33.879Z,94783.03
2022-11-05T01:44:54.245Z,94776.38
2022-11-05T01:46:52.613Z,94778.59
2022-11-05T01:48:58.628Z,94772.09
2022-11-05T01:51:04.246Z,94768.91
2022-11-05T01:53:09.921Z,94776.66
2022-11-05T01:55:12.020Z,94778.88
2022-11-05T01:57:12.410Z,94766.28
2022-11-05T01:59:15.898Z,94763.38
2022-11-05T02:01:14.066Z,94767.97
2022-11-05T02:03:14.837Z,94766.72
2022-11-05T02:05:15.644Z,94765.59
2022-11-05T02:07:14.353Z,94755.25
2022-11-05T02:09:17.996Z,94757.16
2022-11-05T02:11:20.082Z,94753.84
2022-11-05T02:13:18.382Z,94759.41
2022-11-05T02:15:23.265Z,94759.66
2022-11-05T02:17:28.715Z,94764.91
2022-11-05T02:20:03.350Z,94765.06
2022-11-05T02:22:48.048Z,94763.78
2022-11-05T02:25:09.659Z,94760.75
2022-11-05T02:27:21.993Z,94762.28
2022-11-05T02:30:03.910Z,94757.03
2022-11-05T02:32:13.433Z,94765.16
2022-11-05T02:34:21.773Z,94766.84
2022-11-05T02:36:29.774Z,94761.19
2022-11-05T02:38:41.237Z,94763.50
2022-11-05T02:40:51.786Z,94763.50
2022-11-05T02:42:59.828Z,94769.06
2022-11-05T02:45:07.352Z,94757.00
2022-11-05T02:47:18.168Z,94756.75
2022-11-05T02:49:31.534Z,94762.53
2022-11-05T02:51:36.389Z,94764.06
2022-11-05T02:53:42.824Z,94764.19
2022-11-05T02:55:46.394Z,94768.59
2022-11-05T02:57:47.781Z,94764.47
2022-11-05T02:59:45.902Z,94768.44
2022-11-05T03:01:47.055Z,94764.69
2022-11-05T03:03:48.991Z,94766.06
2022-11-05T03:05:57.461Z,94766.63
2022-11-05T03:08:02.670Z,94760.00
2022-11-05T03:10:16.035Z,94757.63
2022-11-05T03:12:23.776Z,94771.06
2022-11-05T03:14:30.049Z,94768.28
2022-11-05T03:16:36.858Z,94768.56
2022-11-05T03:18:43.463Z,94765.66
2022-11-05T03:20:51.498Z,94759.59
2022-11-05T03:22:56.027Z,94760.94
2022-11-05T03:24:58.826Z,94755.69
2022-11-05T03:27:00.691Z,94763.81
2022-11-05T03:29:03.257Z,94779.31
2022-11-05T03:31:04.886Z,94776.13
2022-11-05T03:33:08.284Z,94778.06
2022-11-05T03:35:13.333Z,94782.66
2022-11-05T03:37:13.371Z,94787.31
2022-11-05T03:39:18.357Z,94784.03
2022-11-05T03:41:18.058Z,94796.19
2022-11-05T03:43:18.730Z,94804.88
2022-11-05T03:45:21.580Z,94802.00
2022-11-05T03:47:24.088Z,94798.28
2022-11-05T03:49:26.434Z,94799.25
2022-11-05T03:51:34.575Z,94804.50
2022-11-05T03:53:41.839Z,94807.25
2022-11-05T03:55:52.567Z,94810.16
2022-11-05T03:57:55.147Z,94818.84
2022-11-05T03:59:53.548Z,94819.28
2022-11-05T04:01:52.006Z,94814.44
2022-11-05T04:03:50.388Z,94817.06
2022-11-05T04:06:09.443Z,94813.72
2022-11-05T04:08:25.218Z,94815.38
2022-11-05T04:10:42.221Z,94816.03
2022-11-05T04:12:54.323Z,94807.50
2022-11-05T04:14:52.395Z,94810.22
2022-11-05T04:17:09.583Z,94813.25
2022-11-05T04:19:07.873Z,94803.06
2022-11-05T04:21:24.258Z,94803.38
2022-11-05T04:23:39.755Z,94803.25
2022-11-05T04:25:39.293Z,94807.50
2022-11-05T04:27:38.028Z,94813.31
2022-11-05T04:29:52.611Z,94816.19
2022-11-05T04:31:51.336Z,94835.38
2022-11-05T04:33:49.474Z,94820.34
2022-11-05T04:35:49.628Z,94833.84
2022-11-05T04:37:46.903Z,94834.72
2022-11-05T04:39:45.122Z,94830.75
2022-11-05T04:41:45.481Z,94853.66
2022-11-05T04:43:43.851Z,94844.66
2022-11-05T04:45:42.585Z,94840.63
2022-11-05T04:47:40.723Z,94840.06
2022-11-05T04:49:39.045Z,94846.59
2022-11-05T04:51:37.255Z,94846.59
2022-11-05T04:53:35.576Z,94843.97
2022-11-05T04:55:33.781Z,94835.81
2022-11-05T04:57:33.250Z,94827.41
2022-11-05T04:59:31.459Z,94822.50
2022-11-05T05:01:29.747Z,94824.56
2022-11-05T05:03:27.980Z,94823.44
2022-11-05T05:05:26.285Z,94830.22
2022-11-05T05:07:24.844Z,94830.75
2022-11-05T05:09:23.160Z,94839.84
2022-11-05T05:11:22.896Z,94843.72
2022-11-05T05:13:22.447Z,94846.91
2022-11-05T05:15:21.519Z,94849.13
2022-11-05T05:17:19.776Z,94848.19
2022-11-05T05:19:17.967Z,94846.50
2022-11-05T05:21:33.539Z,94850.41
2022-11-05T05:23:31.844Z,94852.78
2022-11-05T05:25:30.211Z,94860.66
2022-11-05T05:27:30.496Z,94858.31
2022-11-05T05:29:30.079Z,94867.31
2022-11-05T05:31:34.532Z,94877.72
2022-11-05T05:33:33.223Z,94873.75
2022-11-05T05:35:31.718Z,94876.53
2022-11-05T05:37:30.567Z,94877.09
2022-11-05T05:39:28.753Z,94876.94
2022-11-05T05:41:26.922Z,94872.06
2022-11-05T05:43:25.131Z,94881.75
2022-11-05T05:45:25.123Z,94885.22
2022-11-05T05:47:23.310Z,94881.72
2022-11-05T05:49:21.676Z,94874.78
2022-11-05T05:51:20.531Z,94875.97
2022-11-05T05:53:18.802Z,94880.84
2022-11-05T05:55:17.016Z,94891.75
2022-11-05T05:57:15.256Z,94881.72
2022-11-05T05:59:14.029Z,94883.69
2022-11-05T06:01:18.866Z,94888.13
2022-11-05T06:03:18.050Z,94884.97
2022-11-05T06:05:16.469Z,94890.63
2022-11-05T06:07:39.648Z,94889.88
2022-11-05T06:10:12.141Z,94886.03
2022-11-05T06:12:41.643Z,94884.63
2022-11-05T06:14:39.836Z,94881.19
2022-11-05T06:16:47.223Z,94884.03
2022-11-05T06:18:45.454Z,94876.09
2022-11-05T06:20:43.678Z,94881.56
2022-11-05T06:22:42.106Z,94874.06
2022-11-05T06:24:40.278Z,94874.91
2022-11-05T06:26:42.921Z,94884.97
2022-11-05T06:28:42.301Z,94877.47
2022-11-05T06:30:40.506Z,94887.09
2022-11-05T06:32:40.186Z,94884.41
2022-11-05T06:34:38.394Z,94872.22
2022-11-05T06:36:36.616Z,94874.06
2022-11-05T06:38:36.834Z,94878.97
2022-11-05T06:40:35.123Z,94878.69
2022-11-05T06:42:33.399Z,94877.41
2022-11-05T06:44:31.741Z,94872.25
2022-11-05T06:46:29.988Z,94888.56
2022-11-05T06:48:30.030Z,94874.69
2022-11-05T06:50:29.448Z,94883.09
2022-11-05T06:52:31.374Z,94878.50
2022-11-05T06:54:29.859Z,94870.88
2022-11-05T06:56:36.897Z,94860.38
2022-11-05T06:58:38.325Z,94861.38
2022-11-05T07:00:36.690Z,94871.63
2022-11-05T07:02:36.432Z,94871.63
2022-11-05T07:04:36.314Z,94866.84
2022-11-05T07:06:44.852Z,94867.69
2022-11-05T07:08:43.205Z,94853.44
2022-11-05T07:10:44.811Z,94853.94
2022-11-05T07:12:45.588Z,94845.84
2022-11-05T07:14:46.893Z,94850.97
2022-11-05T07:16:45.134Z,94860.41
2022-11-05T07:18:43.371Z,94846.13
2022-11-05T07:20:43.252Z,94843.81
2022-11-05T07:22:41.661Z,94844.00
2022-11-05T07:24:39.946Z,94852.78
2022-11-05T07:26:38.201Z,94854.09
2022-11-05T07:29:29.694Z,94850.47
2022-11-05T07:31:31.216Z,94853.03
2022-11-05T07:33:35.234Z,94847.88
2022-11-05T07:35:34.668Z,94844.06
2022-11-05T07:37:34.378Z,94841.22
2022-11-05T07:39:32.542Z,94827.34
2022-11-05T07:41:30.703Z,94825.28
2022-11-05T07:43:28.961Z,94817.00
2022-11-05T07:45:29.108Z,94820.28
2022-11-05T07:47:27.349Z,94811.94
2022-11-05T07:49:26.276Z,94804.25
2022-11-05T07:51:24.454Z,94813.78
2022-11-05T07:53:24.072Z,94817.97
2022-11-05T07:55:22.425Z,94817.28
2022-11-05T07:57:20.701Z,94821.34
2022-11-05T07:59:19.152Z,94820.75
2022-11-05T08:01:17.738Z,94811.25
2022-11-05T08:03:18.599Z,94804.66
2022-11-05T08:05:23.661Z,94805.13
2022-11-05T08:07:22.047Z,94799.44
2022-11-05T08:09:21.619Z,94794.13
2022-11-05T08:11:20.269Z,94797.06
2022-11-05T08:13:19.426Z,94793.88
2022-11-05T08:15:17.839Z,94799.38
2022-11-05T08:17:19.193Z,94803.84
2022-11-05T08:19:17.375Z,94800.16
2022-11-05T08:21:15.608Z,94805.88
2022-11-05T08:23:14.646Z,94797.69
2022-11-05T08:25:15.000Z,94800.47
2022-11-05T08:28:03.319Z,94797.31
2022-11-05T08:30:01.469Z,94803.59
2022-11-05T08:31:59.728Z,94809.47
2022-11-05T08:34:02.271Z,94796.69
2022-11-05T08:36:05.170Z,94793.19
2022-11-05T08:38:09.149Z,94794.00
2022-11-05T08:40:08.767Z,94788.91
2022-11-05T08:42:08.560Z,94787.34
2022-11-05T08:44:11.610Z,94789.91
2022-11-05T08:46:12.356Z,94788.88
2022-11-05T08:48:15.935Z,94792.97
2022-11-05T08:50:14.160Z,94796.00
2022-11-05T08:52:12.381Z,94799.09
2022-11-05T08:54:10.754Z,94791.84
2022-11-05T08:56:09.662Z,94788.22
2022-11-05T08:58:18.094Z,94791.16
2022-11-05T09:00:16.865Z,94789.75
2022-11-05T09:02:15.312Z,94793.88
2022-11-05T09:04:13.770Z,94794.84
2022-11-05T09:06:12.058Z,94787.78
2022-11-05T09:08:13.411Z,94786.69
2022-11-05T09:10:12.152Z,94777.22
2022-11-05T09:12:12.731Z,94774.78
2022-11-05T09:14:12.761Z,94782.44
2022-11-05T09:16:19.290Z,94779.34
2022-11-05T09:18:18.647Z,94785.97
2022-11-05T09:20:16.939Z,94784.88
2022-11-05T09:22:15.911Z,94788.38
2022-11-05T09:27:44.380Z,94772.53
2022-11-05T09:32:02.090Z,94765.91
2022-11-05T09:34:18.818Z,94751.31
2022-11-05T09:36:21.116Z,94753.56
2022-11-05T09:38:22.638Z,94757.78
2022-11-05T09:40:21.089Z,94761.78
2022-11-05T09:45:54.245Z,94759.16
2022-11-05T09:47:55.104Z,94761.59
2022-11-05T09:49:55.931Z,94757.22
2022-11-05T09:51:56.207Z,94753.78
2022-11-05T09:53:54.807Z,94751.72
2022-11-05T09:55:56.256Z,94753.50
2022-11-05T09:58:00.210Z,94758.72
2022-11-05T10:00:02.733Z,94759.53
2022-11-05T10:02:14.388Z,94758.50
2022-11-05T10:04:18.874Z,94755.00
2022-11-05T10:06:21.557Z,94754.38
2022-11-05T10:08:24.436Z,94758.50
2022-11-05T10:10:36.434Z,94751.50
2022-11-05T10:12:43.341Z,94749.06
2022-11-05T10:14:46.860Z,94748.81
2022-11-05T10:16:52.809Z,94741.25
2022-11-05T10:18:55.447Z,94736.66
2022-11-05T10:20:53.768Z,94734.84
2022-11-05T10:22:57.206Z,94731.59
2022-11-05T10:24:56.561Z,94739.16
2022-11-05T10:26:56.649Z,94740.38
2022-11-05T10:28:55.543Z,94746.50
2022-11-05T10:30:58.847Z,94730.09
2022-11-05T10:33:01.070Z,94729.19
2022-11-05T10:35:02.854Z,94734.00
2022-11-05T10:37:01.402Z,94730.13
2022-11-05T10:39:03.190Z,94732.63
2022-11-05T10:41:14.057Z,94739.06
2022-11-05T10:43:18.579Z,94735.84
2022-11-05T10:45:30.086Z,94740.38
2022-11-05T10:47:41.403Z,94729.84
2022-11-05T10:49:50.758Z,94730.06
2022-11-05T10:51:57.271Z,94727.63
2022-11-05T10:54:01.889Z,94730.06
2022-11-05T10:56:00.678Z,94730.66
2022-11-05T10:58:10.861Z,94722.28
2022-11-05T11:00:21.566Z,94720.69
2022-11-05T11:02:24.908Z,94722.75
2022-11-05T11:04:26.019Z,94719.88
2022-11-05T11:06:27.404Z,94723.34
2022-11-05T11:08:27.474Z,94717.81
2022-11-05T11:10:27.181Z,94707.13
2022-11-05T11:12:28.690Z,94703.84
2022-11-05T11:14:27.720Z,94702.41
2022-11-05T11:16:27.979Z,94698.91
2022-11-05T11:18:31.532Z,94699.72
2022-11-05T11:20:34.561Z,94705.63
2022-11-05T11:22:32.929Z,94707.63
2022-11-05T11:24:38.783Z,94704.75
2022-11-05T11:26:39.464Z,94701.84
2022-11-05T11:28:41.124Z,94697.94
2022-11-05T11:30:39.459Z,94698.34
2022-11-05T11:32:40.541Z,94699.38
2022-11-05T11:34:40.876Z,94697.91
2022-11-05T11:36:44.690Z,94699.47
2022-11-05T11:38:44.178Z,94704.41
2022-11-05T11:40:43.966Z,94696.63
2022-11-05T11:42:46.584Z,94693.84
2022-11-05T11:44:46.804Z,94702.03
2022-11-05T11:46:49.273Z,94703.28
2022-11-05T11:48:49.675Z,94703.28
2022-11-05T11:50:49.027Z,94695.88
2022-11-05T11:52:47.297Z,94698.31
2022-11-05T11:54:45.710Z,94695.00
2022-11-05T11:56:46.848Z,94685.34
2022-11-05T11:58:47.756Z,94682.66
2022-11-05T12:00:52.523Z,94682.91
2022-11-05T12:03:16.034Z,94681.84
2022-11-05T12:05:27.425Z,94684.44
2022-11-05T12:07:38.018Z,94686.13
2022-11-05T12:10:03.162Z,94687.78
2022-11-05T12:12:08.854Z,94683.97
2022-11-05T12:14:19.755Z,94682.72
2022-11-05T12:16:27.758Z,94685.72
2022-11-05T12:18:36.339Z,94677.09
2022-11-05T12:20:58.316Z,94670.91
2022-11-05T12:23:14.467Z,94676.78
2022-11-05T12:25:22.727Z,94679.00
2022-11-05T12:27:37.945Z,94674.50
2022-11-05T12:29:45.545Z,94674.50
2022-11-05T12:31:58.117Z,94674.22
2022-11-05T12:34:09.391Z,94680.75
2022-11-05T12:36:28.652Z,94676.28
2022-11-05T12:38:50.008Z,94675.91
2022-11-05T12:41:07.053Z,94682.47
2022-11-05T12:43:19.522Z,94678.59
2022-11-05T12:45:30.274Z,94674.63
2022-11-05T12:47:43.005Z,94680.41
2022-11-05T12:49:53.094Z,94686.59
2022-11-05T12:52:05.852Z,94695.22
2022-11-05T12:54:28.698Z,94686.13
2022-11-05T12:56:34.582Z,94681.13
2022-11-05T12:58:38.331Z,94673.34
2022-11-05T13:00:39.264Z,94668.34
2022-11-05T13:02:46.428Z,94666.19
2022-11-05T13:04:51.326Z,94672.25
2022-11-05T13:06:54.282Z,94672.66
2022-11-05T13:09:00.862Z,94674.28
2022-11-05T13:11:02.964Z,94680.00
2022-11-05T13:13:09.111Z,94675.09
2022-11-05T13:15:21.405Z,94666.19
2022-11-05T13:17:23.176Z,94674.28
2022-11-05T13:19:25.246Z,94672.88
2022-11-05T13:21:26.437Z,94676.91
2022-11-05T13:23:32.919Z,94679.13
2022-11-05T13:25:34.363Z,94681.91
2022-11-05T13:27:46.150Z,94668.22
2022-11-05T13:29:50.159Z,94670.06
2022-11-05T13:31:55.635Z,94672.66
2022-11-05T13:33:55.612Z,94684.13
2022-11-05T13:36:16.224Z,94692.06
2022-11-05T13:38:38.348Z,94688.50
2022-11-05T13:41:02.448Z,94679.75
2022-11-05T13:43:18.590Z,94673.53
2022-11-05T13:45:46.305Z,94686.59
2022-11-05T13:48:10.962Z,94681.28
2022-11-05T13:50:34.723Z,94680.84
2022-11-05T13:52:50.557Z,94681.00
2022-11-05T13:55:03.530Z,94683.59
2022-11-05T13:57:18.988Z,94689.47
2022-11-05T13:59:48.106Z,94688.03
2022-11-05T14:01:51.135Z,94682.44
2022-11-05T14:03:53.771Z,94680.69
2022-11-05T14:05:57.386Z,94680.16
2022-11-05T14:07:56.859Z,94689.59
2022-11-05T14:09:58.418Z,94682.19
2022-11-05T14:12:00.280Z,94688.84
2022-11-05T14:14:01.104Z,94699.84
2022-11-05T14:16:05.221Z,94693.78
2022-11-05T14:18:05.402Z,94691.59
2022-11-05T14:20:47.737Z,94694.94
2022-11-05T14:22:45.887Z,94700.16
2022-11-05T14:24:45.908Z,94696.28
2022-11-05T14:26:44.066Z,94694.28
2022-11-05T14:28:45.462Z,94696.13
2022-11-05T14:30:46.334Z,94696.84
2022-11-05T14:32:50.157Z,94689.63
2022-11-05T14:34:54.768Z,94687.31
2022-11-05T14:37:24.141Z,94690.34
2022-11-05T14:39:26.504Z,94695.34
2022-11-05T14:41:24.854Z,94689.31
2022-11-05T14:43:26.881Z,94698.47
2022-11-05T14:45:30.309Z,94689.88
2022-11-05T14:47:31.898Z,94690.50
2022-11-05T14:49:33.494Z,94694.06
2022-11-05T14:51:35.417Z,94689.41
2022-11-05T14:53:39.003Z,94699.91
2022-11-05T14:55:40.421Z,94697.25
2022-11-05T14:58:21.026Z,94698.06
2022-11-05T15:00:48.043Z,94696.09
2022-11-05T15:02:58.162Z,94690.97
2022-11-05T15:05:29.701Z,94692.59
2022-11-05T15:07:36.093Z,94695.50
2022-11-05T15:09:37.851Z,94694.56
2022-11-05T15:11:40.129Z,94690.00
2022-11-05T15:13:55.280Z,94695.53
2022-11-05T15:15:54.064Z,94698.53
2022-11-05T15:18:02.402Z,94696.09
2022-11-05T15:20:13.074Z,94698.81
2022-11-05T15:22:23.396Z,94695.94
2022-11-05T15:24:23.025Z,94692.44
2022-11-05T15:26:29.166Z,94685.97
2022-11-05T15:28:34.802Z,94695.34
2022-11-05T15:30:33.709Z,94694.59
2022-11-05T15:32:37.417Z,94696.91
2022-11-05T15:34:36.885Z,94703.75
2022-11-05T15:36:35.390Z,94691.72
2022-11-05T15:38:35.756Z,94697.38
2022-11-05T15:40:34.423Z,94697.91
2022-11-05T15:42:34.277Z,94695.78
2022-11-05T15:44:35.128Z,94700.13
2022-11-05T15:46:33.390Z,94699.16
2022-11-05T15:48:35.556Z,94701.81
2022-11-05T15:50:33.825Z,94705.28
2022-11-05T15:52:36.520Z,94701.81
2022-11-05T15:54:35.097Z,94707.97
2022-11-05T15:56:37.657Z,94701.84
2022-11-05T15:58:41.042Z,94707.97
2022-11-05T16:00:39.548Z,94702.56
2022-11-05T16:02:42.564Z,94700.09
2022-11-05T16:04:53.643Z,94704.09
2022-11-05T16:06:55.359Z,94710.22
2022-11-05T16:08:53.737Z,94707.72
2022-11-05T16:10:54.717Z,94700.31
2022-11-05T16:12:53.318Z,94704.59
2022-11-05T16:15:00.506Z,94707.25
2022-11-05T16:16:58.844Z,94709.41
2022-11-05T16:18:56.960Z,94704.44
2022-11-05T16:21:07.003Z,94710.88
2022-11-05T16:23:07.149Z,94707.59
2022-11-05T16:25:31.446Z,94713.22
2022-11-05T16:27:29.578Z,94714.88
2022-11-05T16:29:31.038Z,94715.72
2022-11-05T16:31:33.853Z,94716.53
2022-11-05T16:33:34.813Z,94720.81
2022-11-05T16:35:33.365Z,94722.81
2022-11-05T16:37:37.756Z,94722.81
2022-11-05T16:39:36.102Z,94719.84
2022-11-05T16:41:43.291Z,94723.50
2022-11-05T16:43:41.560Z,94721.66
2022-11-05T16:45:41.554Z,94725.28
2022-11-05T16:47:41.176Z,94734.03
2022-11-05T16:49:39.791Z,94724.97
2022-11-05T16:51:37.923Z,94731.72
2022-11-05T16:53:36.440Z,94734.38
2022-11-05T16:55:37.523Z,94741.31
2022-11-05T16:57:35.872Z,94742.50
2022-11-05T16:59:34.891Z,94743.94
2022-11-05T17:01:34.409Z,94746.13
2022-11-05T17:03:34.092Z,94736.38
2022-11-05T17:05:32.449Z,94734.72
2022-11-05T17:07:30.759Z,94743.63
2022-11-05T17:09:31.522Z,94737.69
2022-11-05T17:11:29.810Z,94732.41
2022-11-05T17:13:28.509Z,94733.88
2022-11-05T17:15:29.330Z,94733.38
2022-11-05T17:17:29.094Z,94733.72
2022-11-05T17:19:28.934Z,94732.56
2022-11-05T17:21:28.897Z,94724.13
2022-11-05T17:23:28.819Z,94728.28
2022-11-05T17:25:27.783Z,94725.44
2022-11-05T17:27:26.220Z,94729.41
2022-11-05T17:29:24.640Z,94734.56
2022-11-05T17:31:23.180Z,94730.25
2022-11-05T17:33:22.754Z,94725.28
2022-11-05T17:35:22.972Z,94731.25
2022-11-05T17:37:21.264Z,94728.28
2022-11-05T17:39:19.416Z,94731.75
2022-11-05T17:41:19.906Z,94733.38
2022-11-05T17:43:18.076Z,94731.56
2022-11-05T17:45:16.576Z,94731.91
2022-11-05T17:47:14.851Z,94735.69
2022-11-05T17:49:13.013Z,94732.06
2022-11-05T17:51:15.079Z,94728.44
2022-11-05T17:53:14.231Z,94720.50
2022-11-05T17:55:17.692Z,94721.66
2022-11-05T17:57:16.352Z,94719.34
2022-11-05T17:59:14.692Z,94722.97
2022-11-05T18:01:26.464Z,94728.09
2022-11-05T18:03:24.883Z,94726.44
2022-11-05T18:05:24.291Z,94730.03
2022-11-05T18:07:24.216Z,94725.56
2022-11-05T18:09:22.683Z,94728.69
2022-11-05T18:11:21.294Z,94728.69
2022-11-05T18:13:19.566Z,94735.31
2022-11-05T18:15:18.715Z,94728.16
2022-11-05T18:17:16.913Z,94728.97
2022-11-05T18:19:15.229Z,94736.72
2022-11-05T18:21:13.592Z,94731.25
2022-11-05T18:23:14.350Z,94734.84
2022-11-05T18:25:13.605Z,94733.34
2022-11-05T18:27:11.983Z,94740.59
2022-11-05T18:29:10.342Z,94734.34
2022-11-05T18:31:17.877Z,94736.38
2022-11-05T18:33:16.833Z,94735.88
2022-11-05T18:35:15.554Z,94739.38
2022-11-05T18:37:13.794Z,94727.34
2022-11-05T18:39:14.313Z,94733.97
2022-11-05T18:41:12.495Z,94734.56
2022-11-05T18:43:11.178Z,94734.38
2022-11-05T18:45:11.905Z,94734.06
2022-11-05T18:47:10.362Z,94728.75
2022-11-05T18:49:11.302Z,94725.28
2022-11-05T18:51:10.217Z,94730.09
2022-11-05T18:53:09.330Z,94725.28
2022-11-05T18:55:10.917Z,94728.25
2022-11-05T18:57:09.801Z,94731.22
2022-11-05T18:59:35.217Z,94732.25
2022-11-05T19:01:28.851Z,94741.50
2022-11-05T19:03:27.239Z,94743.31
2022-11-05T19:05:29.902Z,94740.81
2022-11-05T19:07:28.762Z,94755.81
2022-11-05T19:09:27.001Z,94753.63
2022-11-05T19:11:27.703Z,94753.41
2022-11-05T19:13:26.443Z,94754.31
2022-11-05T19:15:24.721Z,94763.53
2022-11-05T19:17:23.071Z,94762.47
2022-11-05T19:19:21.651Z,94753.56
2022-11-05T19:21:21.880Z,94754.38
2022-11-05T19:23:20.381Z,94743.44
2022-11-05T19:25:18.735Z,94750.72
2022-11-05T19:27:18.711Z,94748.94
2022-11-05T19:29:17.015Z,94750.53
2022-11-05T19:31:17.525Z,94753.41
2022-11-05T19:33:15.824Z,94750.50
2022-11-05T19:35:14.101Z,94757.66
2022-11-05T19:37:12.453Z,94751.81
2022-11-05T19:39:13.210Z,94750.69
2022-11-05T19:41:14.818Z,94758.69
2022-11-05T19:43:14.735Z,94762.09
2022-11-05T19:47:31.366Z,94761.84
2022-11-05T19:49:29.913Z,94754.00
2022-11-05T19:51:32.554Z,94756.69
2022-11-05T19:53:30.847Z,94756.00
2022-11-05T19:55:29.364Z,94747.16
2022-11-05T19:57:27.851Z,94753.78
2022-11-05T19:59:27.746Z,94761.84
2022-11-05T20:01:27.439Z,94774.63
2022-11-05T20:03:26.200Z,94762.75
2022-11-05T20:05:24.715Z,94768.63
2022-11-05T20:07:23.503Z,94779.09
2022-11-05T20:09:23.261Z,94780.59
2022-11-05T20:11:22.069Z,94775.75
2022-11-05T20:13:20.380Z,94781.81
2022-11-05T20:15:20.544Z,94791.59
2022-11-05T20:17:20.359Z,94786.25
2022-11-05T20:19:21.909Z,94782.66
2022-11-05T20:21:20.703Z,94775.66
2022-11-05T20:23:19.270Z,94785.00
2022-11-05T20:25:17.727Z,94782.53
2022-11-05T20:27:16.062Z,94782.59
2022-11-05T20:29:14.256Z,94783.81
2022-11-05T20:31:15.774Z,94785.63
2022-11-05T20:33:14.199Z,94790.94
2022-11-05T20:35:12.881Z,94790.25
2022-11-05T20:37:11.283Z,94784.31
2022-11-05T20:39:09.604Z,94785.28
2022-11-05T20:41:09.355Z,94783.19
2022-11-05T20:43:07.565Z,94787.34
2022-11-05T20:45:07.113Z,94791.41
2022-11-05T20:47:06.824Z,94786.75
2022-11-05T20:49:05.303Z,94779.34
2022-11-05T20:51:07.328Z,94781.22
2022-11-05T20:53:05.703Z,94791.84
2022-11-05T20:55:05.321Z,94790.66
2022-11-05T20:57:04.142Z,94771.44
2022-11-05T20:59:03.093Z,94783.03
2022-11-05T21:01:01.293Z,94779.19
2022-11-05T21:03:00.972Z,94783.25
2022-11-05T21:04:59.204Z,94795.13
2022-11-05T21:06:57.510Z,94787.72
2022-11-05T21:08:55.687Z,94794.88
2022-11-05T21:10:54.063Z,94791.00
2022-11-05T21:12:52.300Z,94794.03
2022-11-05T21:14:51.174Z,94798.47
2022-11-05T21:16:49.619Z,94804.44
2022-11-05T21:18:49.485Z,94802.09
2022-11-05T21:20:48.158Z,94797.03
2022-11-05T21:22:46.305Z,94796.72
2022-11-05T21:24:44.763Z,94791.88
2022-11-05T21:26:43.017Z,94792.47
2022-11-05T21:28:42.451Z,94785.16
2022-11-05T21:30:45.136Z,94797.94
2022-11-05T21:32:43.537Z,94794.72
2022-11-05T21:34:43.101Z,94804.13
2022-11-05T21:36:41.748Z,94800.78
2022-11-05T21:38:40.827Z,94789.31
2022-11-05T21:40:39.532Z,94792.53
2022-11-05T21:42:37.898Z,94794.47
2022-11-05T21:44:36.225Z,94795.38
2022-11-05T21:46:34.385Z,94784.66
2022-11-05T21:48:33.121Z,94796.09
2022-11-05T21:50:52.505Z,94785.97
2022-11-05T21:53:22.773Z,94786.44
2022-11-05T21:55:35.466Z,94793.34
2022-11-05T21:57:52.338Z,94793.78
2022-11-05T21:59:51.959Z,94789.94
2022-11-05T22:01:50.654Z,94788.69
2022-11-05T22:03:49.051Z,94796.72
2022-11-05T22:05:48.908Z,94793.53
2022-11-05T22:07:47.130Z,94800.78
2022-11-05T22:09:45.846Z,94802.56
2022-11-05T22:11:44.191Z,94795.50
2022-11-05T22:13:42.721Z,94794.84
2022-11-05T22:15:40.864Z,94790.38
2022-11-05T22:17:43.858Z,94787.22
2022-11-05T22:19:44.679Z,94788.94
2022-11-05T22:21:44.608Z,94792.22
2022-11-05T22:23:43.362Z,94797.97
2022-11-05T22:25:42.219Z,94793.81
2022-11-05T22:27:40.934Z,94799.34
2022-11-05T22:29:39.397Z,94794.22
2022-11-05T22:31:38.096Z,94797.69
2022-11-05T22:33:36.513Z,94793.75
2022-11-05T22:35:34.999Z,94794.00
2022-11-05T22:37:35.312Z,94788.28
2022-11-05T22:39:34.267Z,94791.00
2022-11-05T22:41:33.029Z,94794.31
2022-11-05T22:43:33.501Z,94792.34
2022-11-05T22:45:31.710Z,94797.16
2022-11-05T22:47:29.988Z,94796.22
2022-11-05T22:49:28.402Z,94794.78
2022-11-05T22:51:28.908Z,94788.88
2022-11-05T22:53:28.763Z,94791.38
2022-11-05T22:55:26.953Z,94780.28
2022-11-05T22:57:25.326Z,94788.28
2022-11-05T22:59:23.461Z,94781.94
2022-11-05T23:01:22.961Z,94793.19
2022-11-05T23:03:21.362Z,94797.50
2022-11-05T23:05:19.528Z,94804.13
2022-11-05T23:07:36.459Z,94793.53
2022-11-05T23:09:54.042Z,94796.25
2022-11-05T23:11:54.732Z,94788.47
2022-11-05T23:13:52.905Z,94797.34
2022-11-05T23:16:08.556Z,94799.97
2022-11-05T23:18:20.723Z,94801.44
2022-11-05T23:20:39.077Z,94797.31
2022-11-05T23:22:54.659Z,94805.22
2022-11-05T23:24:54.240Z,94807.41
2022-11-05T23:26:52.358Z,94805.16
2022-11-05T23:28:50.713Z,94811.41
2022-11-05T23:31:07.828Z,94806.69
2022-11-05T23:33:05.958Z,94815.50
2022-11-05T23:35:05.534Z,94814.41
2022-11-05T23:37:21.042Z,94815.38
2022-11-05T23:39:18.342Z,94819.66
2022-11-05T23:41:35.552Z,94809.94
2022-11-05T23:43:51.277Z,94819.94
2022-11-05T23:46:06.647Z,94814.88
2022-11-05T23:48:17.972Z,94806.97
2022-11-05T23:50:16.343Z,94798.16
2022-11-05T23:52:14.387Z,94790.56
2022-11-05T23:54:13.056Z,94800.00
2022-11-05T23:56:13.941Z,94801.16
2022-11-05T23:58:13.980Z,94804.72
